sensor_id;sensor_type;location;lat;lon;timestamp;temperature;humidity
21811;DHT22;11067;48.788;9.208;2024-02-26T00:01:42;8.20;60.00
21811;DHT22;11067;48.788;9.208;2024-02-26T00:04:11;8.20;50.30
21811;DHT22;11067;48.788;9.208;2024-02-26T00:06:38;8.30;43.80
21811;DHT22;11067;48.788;9.208;2024-02-26T00:09:06;8.30;44.90
21811;DHT22;11067;48.788;9.208;2024-02-26T00:11:32;8.30;44.00
21811;DHT22;11067;48.788;9.208;2024-02-26T00:13:58;8.30;43.30
21811;DHT22;11067;48.788;9.208;2024-02-26T00:16:23;8.30;46.10
21811;DHT22;11067;48.788;9.208;2024-02-26T00:18:49;8.30;49.50
21811;DHT22;11067;48.788;9.208;2024-02-26T00:21:15;8.20;50.90
21811;DHT22;11067;48.788;9.208;2024-02-26T00:23:40;8.20;49.50
21811;DHT22;11067;48.788;9.208;2024-02-26T00:26:06;8.20;53.50
21811;DHT22;11067;48.788;9.208;2024-02-26T00:28:31;8.20;53.10
21811;DHT22;11067;48.788;9.208;2024-02-26T00:30:57;8.20;52.30
21811;DHT22;11067;48.788;9.208;2024-02-26T00:33:22;8.20;51.00
21811;DHT22;11067;48.788;9.208;2024-02-26T00:35:49;8.10;51.90
21811;DHT22;11067;48.788;9.208;2024-02-26T00:38:14;8.20;53.40
21811;DHT22;11067;48.788;9.208;2024-02-26T00:40:40;8.30;55.10
21811;DHT22;11067;48.788;9.208;2024-02-26T00:43:06;8.20;54.40
21811;DHT22;11067;48.788;9.208;2024-02-26T00:45:32;8.20;54.20
21811;DHT22;11067;48.788;9.208;2024-02-26T00:47:58;8.20;54.10
21811;DHT22;11067;48.788;9.208;2024-02-26T00:50:23;8.20;55.10
21811;DHT22;11067;48.788;9.208;2024-02-26T00:52:49;8.20;58.80
21811;DHT22;11067;48.788;9.208;2024-02-26T00:55:14;8.20;58.20
21811;DHT22;11067;48.788;9.208;2024-02-26T00:57:40;8.10;54.70
21811;DHT22;11067;48.788;9.208;2024-02-26T01:00:06;8.10;56.70
21811;DHT22;11067;48.788;9.208;2024-02-26T01:02:34;8.10;60.00
21811;DHT22;11067;48.788;9.208;2024-02-26T01:05:00;8.20;60.30
21811;DHT22;11067;48.788;9.208;2024-02-26T01:07:25;8.10;59.40
21811;DHT22;11067;48.788;9.208;2024-02-26T01:09:50;8.00;60.90
21811;DHT22;11067;48.788;9.208;2024-02-26T01:12:16;8.10;66.90
21811;DHT22;11067;48.788;9.208;2024-02-26T01:14:41;8.00;69.90
21811;DHT22;11067;48.788;9.208;2024-02-26T01:17:07;8.10;66.30
21811;DHT22;11067;48.788;9.208;2024-02-26T01:19:32;8.10;63.00
21811;DHT22;11067;48.788;9.208;2024-02-26T01:21:58;8.20;59.40
21811;DHT22;11067;48.788;9.208;2024-02-26T01:24:23;8.20;57.80
21811;DHT22;11067;48.788;9.208;2024-02-26T01:26:49;8.20;58.00
21811;DHT22;11067;48.788;9.208;2024-02-26T01:29:15;8.20;57.70
21811;DHT22;11067;48.788;9.208;2024-02-26T01:31:40;8.10;55.70
21811;DHT22;11067;48.788;9.208;2024-02-26T01:34:05;8.10;59.00
21811;DHT22;11067;48.788;9.208;2024-02-26T01:36:31;8.10;58.90
21811;DHT22;11067;48.788;9.208;2024-02-26T01:38:57;8.10;59.30
21811;DHT22;11067;48.788;9.208;2024-02-26T01:41:22;8.00;59.00
21811;DHT22;11067;48.788;9.208;2024-02-26T01:43:48;8.00;61.10
21811;DHT22;11067;48.788;9.208;2024-02-26T01:46:14;8.00;62.00
21811;DHT22;11067;48.788;9.208;2024-02-26T01:48:42;8.10;56.30
21811;DHT22;11067;48.788;9.208;2024-02-26T01:51:08;8.10;51.40
21811;DHT22;11067;48.788;9.208;2024-02-26T01:53:34;8.10;52.90
21811;DHT22;11067;48.788;9.208;2024-02-26T01:56:00;8.10;51.90
21811;DHT22;11067;48.788;9.208;2024-02-26T01:58:26;8.20;55.20
21811;DHT22;11067;48.788;9.208;2024-02-26T02:00:52;8.20;54.90
21811;DHT22;11067;48.788;9.208;2024-02-26T02:03:18;8.10;59.80
21811;DHT22;11067;48.788;9.208;2024-02-26T02:05:44;8.10;59.30
21811;DHT22;11067;48.788;9.208;2024-02-26T02:08:13;8.10;61.10
21811;DHT22;11067;48.788;9.208;2024-02-26T02:10:39;8.10;62.20
21811;DHT22;11067;48.788;9.208;2024-02-26T02:13:06;8.10;65.80
21811;DHT22;11067;48.788;9.208;2024-02-26T02:15:31;8.10;66.80
21811;DHT22;11067;48.788;9.208;2024-02-26T02:17:57;8.00;68.00
21811;DHT22;11067;48.788;9.208;2024-02-26T02:20:33;8.10;65.20
21811;DHT22;11067;48.788;9.208;2024-02-26T02:22:59;8.10;56.00
21811;DHT22;11067;48.788;9.208;2024-02-26T02:25:25;8.10;56.40
21811;DHT22;11067;48.788;9.208;2024-02-26T02:27:52;8.10;56.40
21811;DHT22;11067;48.788;9.208;2024-02-26T02:30:18;8.10;56.00
21811;DHT22;11067;48.788;9.208;2024-02-26T02:32:45;8.10;57.40
21811;DHT22;11067;48.788;9.208;2024-02-26T02:35:10;8.10;59.40
21811;DHT22;11067;48.788;9.208;2024-02-26T02:37:36;8.20;56.10
21811;DHT22;11067;48.788;9.208;2024-02-26T02:40:02;8.20;50.90
21811;DHT22;11067;48.788;9.208;2024-02-26T02:42:28;8.30;51.60
21811;DHT22;11067;48.788;9.208;2024-02-26T02:44:53;8.20;57.50
21811;DHT22;11067;48.788;9.208;2024-02-26T02:47:19;8.10;66.20
21811;DHT22;11067;48.788;9.208;2024-02-26T02:49:44;8.10;72.00
21811;DHT22;11067;48.788;9.208;2024-02-26T02:52:10;8.00;73.40
21811;DHT22;11067;48.788;9.208;2024-02-26T02:54:36;8.00;77.90
21811;DHT22;11067;48.788;9.208;2024-02-26T02:57:03;8.00;78.20
21811;DHT22;11067;48.788;9.208;2024-02-26T02:59:29;8.00;81.50
21811;DHT22;11067;48.788;9.208;2024-02-26T03:01:54;8.00;83.60
21811;DHT22;11067;48.788;9.208;2024-02-26T03:04:20;8.00;83.70
21811;DHT22;11067;48.788;9.208;2024-02-26T03:06:45;8.00;83.50
21811;DHT22;11067;48.788;9.208;2024-02-26T03:09:11;7.90;89.40
21811;DHT22;11067;48.788;9.208;2024-02-26T03:11:36;8.00;88.30
21811;DHT22;11067;48.788;9.208;2024-02-26T03:14:02;7.90;88.80
21811;DHT22;11067;48.788;9.208;2024-02-26T03:16:28;8.00;89.80
21811;DHT22;11067;48.788;9.208;2024-02-26T03:18:53;8.10;78.60
21811;DHT22;11067;48.788;9.208;2024-02-26T03:21:19;8.20;71.10
21811;DHT22;11067;48.788;9.208;2024-02-26T03:23:44;8.20;64.20
21811;DHT22;11067;48.788;9.208;2024-02-26T03:26:11;8.20;66.90
21811;DHT22;11067;48.788;9.208;2024-02-26T03:28:40;8.10;70.00
21811;DHT22;11067;48.788;9.208;2024-02-26T03:31:05;8.10;73.40
21811;DHT22;11067;48.788;9.208;2024-02-26T03:33:31;8.10;75.70
21811;DHT22;11067;48.788;9.208;2024-02-26T03:35:56;8.10;73.50
21811;DHT22;11067;48.788;9.208;2024-02-26T03:38:22;8.10;70.90
21811;DHT22;11067;48.788;9.208;2024-02-26T03:40:47;8.10;73.70
21811;DHT22;11067;48.788;9.208;2024-02-26T03:43:13;8.10;75.40
21811;DHT22;11067;48.788;9.208;2024-02-26T03:45:39;8.20;64.90
21811;DHT22;11067;48.788;9.208;2024-02-26T03:48:05;8.20;66.40
21811;DHT22;11067;48.788;9.208;2024-02-26T03:50:30;8.00;79.20
21811;DHT22;11067;48.788;9.208;2024-02-26T03:52:56;8.00;89.90
21811;DHT22;11067;48.788;9.208;2024-02-26T03:55:22;7.90;94.40
21811;DHT22;11067;48.788;9.208;2024-02-26T03:57:51;7.90;99.90
21811;DHT22;11067;48.788;9.208;2024-02-26T04:00:16;7.90;99.90
21811;DHT22;11067;48.788;9.208;2024-02-26T04:02:42;7.90;95.70
21811;DHT22;11067;48.788;9.208;2024-02-26T04:05:11;7.70;94.10
21811;DHT22;11067;48.788;9.208;2024-02-26T04:07:37;7.70;99.40
21811;DHT22;11067;48.788;9.208;2024-02-26T04:10:02;7.70;99.90
21811;DHT22;11067;48.788;9.208;2024-02-26T04:12:31;7.70;99.90
21811;DHT22;11067;48.788;9.208;2024-02-26T04:14:57;7.70;99.90
21811;DHT22;11067;48.788;9.208;2024-02-26T04:17:23;7.80;99.90
21811;DHT22;11067;48.788;9.208;2024-02-26T04:19:49;7.80;96.80
21811;DHT22;11067;48.788;9.208;2024-02-26T04:22:15;7.80;92.60
21811;DHT22;11067;48.788;9.208;2024-02-26T04:24:40;7.80;91.00
21811;DHT22;11067;48.788;9.208;2024-02-26T04:27:06;7.70;91.70
21811;DHT22;11067;48.788;9.208;2024-02-26T04:29:31;7.70;91.00
21811;DHT22;11067;48.788;9.208;2024-02-26T04:31:57;7.70;90.50
21811;DHT22;11067;48.788;9.208;2024-02-26T04:34:22;7.70;89.60
21811;DHT22;11067;48.788;9.208;2024-02-26T04:36:48;7.70;92.70
21811;DHT22;11067;48.788;9.208;2024-02-26T04:39:13;7.60;94.00
21811;DHT22;11067;48.788;9.208;2024-02-26T04:41:39;7.70;95.40
21811;DHT22;11067;48.788;9.208;2024-02-26T04:44:05;7.70;96.30
21811;DHT22;11067;48.788;9.208;2024-02-26T04:46:30;7.70;97.50
21811;DHT22;11067;48.788;9.208;2024-02-26T04:48:56;7.70;96.90
21811;DHT22;11067;48.788;9.208;2024-02-26T04:51:21;7.80;94.90
21811;DHT22;11067;48.788;9.208;2024-02-26T04:53:47;7.80;94.10
21811;DHT22;11067;48.788;9.208;2024-02-26T04:56:12;7.80;94.00
21811;DHT22;11067;48.788;9.208;2024-02-26T04:58:38;7.80;94.50
21811;DHT22;11067;48.788;9.208;2024-02-26T05:01:06;7.90;94.80
21811;DHT22;11067;48.788;9.208;2024-02-26T05:03:31;8.00;91.30
21811;DHT22;11067;48.788;9.208;2024-02-26T05:05:57;7.90;91.30
21811;DHT22;11067;48.788;9.208;2024-02-26T05:08:23;8.00;93.20
21811;DHT22;11067;48.788;9.208;2024-02-26T05:10:49;7.90;91.40
21811;DHT22;11067;48.788;9.208;2024-02-26T05:13:14;7.80;93.40
21811;DHT22;11067;48.788;9.208;2024-02-26T05:15:41;7.80;94.10
21811;DHT22;11067;48.788;9.208;2024-02-26T05:18:07;7.80;97.10
21811;DHT22;11067;48.788;9.208;2024-02-26T05:20:33;7.80;96.20
21811;DHT22;11067;48.788;9.208;2024-02-26T05:23:00;7.80;95.20
21811;DHT22;11067;48.788;9.208;2024-02-26T05:25:26;7.80;95.90
21811;DHT22;11067;48.788;9.208;2024-02-26T05:27:51;7.80;96.20
21811;DHT22;11067;48.788;9.208;2024-02-26T05:30:17;7.90;96.60
21811;DHT22;11067;48.788;9.208;2024-02-26T05:32:42;7.90;92.80
21811;DHT22;11067;48.788;9.208;2024-02-26T05:35:08;7.90;75.90
21811;DHT22;11067;48.788;9.208;2024-02-26T05:37:34;8.10;70.70
21811;DHT22;11067;48.788;9.208;2024-02-26T05:39:59;8.10;61.10
21811;DHT22;11067;48.788;9.208;2024-02-26T05:42:25;8.20;53.50
21811;DHT22;11067;48.788;9.208;2024-02-26T05:44:50;8.10;57.40
21811;DHT22;11067;48.788;9.208;2024-02-26T05:47:16;8.10;58.60
21811;DHT22;11067;48.788;9.208;2024-02-26T05:49:42;8.10;62.70
21811;DHT22;11067;48.788;9.208;2024-02-26T05:52:08;8.10;69.10
21811;DHT22;11067;48.788;9.208;2024-02-26T05:54:33;8.10;90.60
21811;DHT22;11067;48.788;9.208;2024-02-26T05:56:59;8.10;94.00
21811;DHT22;11067;48.788;9.208;2024-02-26T05:59:24;8.10;99.90
21811;DHT22;11067;48.788;9.208;2024-02-26T06:01:50;8.00;99.90
21811;DHT22;11067;48.788;9.208;2024-02-26T06:04:16;8.00;99.90
21811;DHT22;11067;48.788;9.208;2024-02-26T06:06:44;8.00;99.90
21811;DHT22;11067;48.788;9.208;2024-02-26T06:09:09;8.00;99.90
21811;DHT22;11067;48.788;9.208;2024-02-26T06:11:36;7.90;99.90
21811;DHT22;11067;48.788;9.208;2024-02-26T06:14:02;8.00;99.90
21811;DHT22;11067;48.788;9.208;2024-02-26T06:16:28;7.90;99.90
21811;DHT22;11067;48.788;9.208;2024-02-26T06:18:53;7.80;99.90
21811;DHT22;11067;48.788;9.208;2024-02-26T06:21:19;7.80;99.90
21811;DHT22;11067;48.788;9.208;2024-02-26T06:23:44;7.70;99.90
21811;DHT22;11067;48.788;9.208;2024-02-26T06:26:10;7.70;99.90
21811;DHT22;11067;48.788;9.208;2024-02-26T06:28:36;7.80;99.90
21811;DHT22;11067;48.788;9.208;2024-02-26T06:31:02;7.80;99.90
21811;DHT22;11067;48.788;9.208;2024-02-26T06:33:28;7.90;99.90
21811;DHT22;11067;48.788;9.208;2024-02-26T06:36:21;7.90;99.90
21811;DHT22;11067;48.788;9.208;2024-02-26T06:38:47;7.90;99.90
21811;DHT22;11067;48.788;9.208;2024-02-26T06:41:14;7.90;99.90
21811;DHT22;11067;48.788;9.208;2024-02-26T06:43:39;7.90;99.90
21811;DHT22;11067;48.788;9.208;2024-02-26T06:46:06;7.90;99.90
21811;DHT22;11067;48.788;9.208;2024-02-26T06:48:31;7.90;99.90
21811;DHT22;11067;48.788;9.208;2024-02-26T06:50:57;7.90;99.90
21811;DHT22;11067;48.788;9.208;2024-02-26T06:53:23;7.90;99.90
21811;DHT22;11067;48.788;9.208;2024-02-26T06:55:48;7.80;99.90
21811;DHT22;11067;48.788;9.208;2024-02-26T06:58:15;7.90;99.90
21811;DHT22;11067;48.788;9.208;2024-02-26T07:00:41;8.00;99.90
21811;DHT22;11067;48.788;9.208;2024-02-26T07:03:06;8.00;99.90
21811;DHT22;11067;48.788;9.208;2024-02-26T07:05:32;7.90;99.90
21811;DHT22;11067;48.788;9.208;2024-02-26T07:07:57;7.90;99.90
21811;DHT22;11067;48.788;9.208;2024-02-26T07:10:23;8.00;99.90
21811;DHT22;11067;48.788;9.208;2024-02-26T07:12:48;8.10;99.90
21811;DHT22;11067;48.788;9.208;2024-02-26T07:15:14;8.10;99.90
21811;DHT22;11067;48.788;9.208;2024-02-26T07:17:40;8.10;99.90
21811;DHT22;11067;48.788;9.208;2024-02-26T07:20:08;8.20;99.90
21811;DHT22;11067;48.788;9.208;2024-02-26T07:22:34;8.20;99.90
21811;DHT22;11067;48.788;9.208;2024-02-26T07:24:59;8.20;99.90
21811;DHT22;11067;48.788;9.208;2024-02-26T07:27:25;8.20;99.90
21811;DHT22;11067;48.788;9.208;2024-02-26T07:29:50;8.10;99.90
21811;DHT22;11067;48.788;9.208;2024-02-26T07:32:16;8.10;99.90
21811;DHT22;11067;48.788;9.208;2024-02-26T07:34:41;8.00;99.90
21811;DHT22;11067;48.788;9.208;2024-02-26T07:37:08;7.90;99.90
21811;DHT22;11067;48.788;9.208;2024-02-26T07:39:33;7.90;99.90
21811;DHT22;11067;48.788;9.208;2024-02-26T07:41:59;8.00;99.90
21811;DHT22;11067;48.788;9.208;2024-02-26T07:44:25;8.00;99.90
21811;DHT22;11067;48.788;9.208;2024-02-26T07:46:50;8.00;99.90
21811;DHT22;11067;48.788;9.208;2024-02-26T07:49:16;8.10;99.90
21811;DHT22;11067;48.788;9.208;2024-02-26T07:51:41;8.10;99.90
21811;DHT22;11067;48.788;9.208;2024-02-26T07:54:07;8.10;99.90
21811;DHT22;11067;48.788;9.208;2024-02-26T07:56:32;8.10;99.90
21811;DHT22;11067;48.788;9.208;2024-02-26T07:58:58;8.00;99.90
21811;DHT22;11067;48.788;9.208;2024-02-26T08:01:24;8.00;99.90
21811;DHT22;11067;48.788;9.208;2024-02-26T08:03:51;8.10;99.90
21811;DHT22;11067;48.788;9.208;2024-02-26T08:06:16;8.10;99.90
21811;DHT22;11067;48.788;9.208;2024-02-26T08:08:42;8.20;99.90
21811;DHT22;11067;48.788;9.208;2024-02-26T08:11:09;8.30;99.90
21811;DHT22;11067;48.788;9.208;2024-02-26T08:13:34;8.20;99.90
21811;DHT22;11067;48.788;9.208;2024-02-26T08:16:01;8.20;99.90
21811;DHT22;11067;48.788;9.208;2024-02-26T08:18:26;8.30;99.90
21811;DHT22;11067;48.788;9.208;2024-02-26T08:20:52;8.40;99.90
21811;DHT22;11067;48.788;9.208;2024-02-26T08:23:18;8.40;99.90
21811;DHT22;11067;48.788;9.208;2024-02-26T08:25:43;8.30;99.90
21811;DHT22;11067;48.788;9.208;2024-02-26T08:28:09;8.30;99.90
21811;DHT22;11067;48.788;9.208;2024-02-26T08:30:36;8.20;99.90
21811;DHT22;11067;48.788;9.208;2024-02-26T08:33:02;8.20;99.90
21811;DHT22;11067;48.788;9.208;2024-02-26T08:35:27;8.30;99.90
21811;DHT22;11067;48.788;9.208;2024-02-26T08:37:53;8.30;99.90
21811;DHT22;11067;48.788;9.208;2024-02-26T08:40:18;8.30;99.90
21811;DHT22;11067;48.788;9.208;2024-02-26T08:42:45;8.40;99.90
21811;DHT22;11067;48.788;9.208;2024-02-26T08:45:11;8.50;96.50
21811;DHT22;11067;48.788;9.208;2024-02-26T08:47:37;8.50;96.20
21811;DHT22;11067;48.788;9.208;2024-02-26T08:50:04;8.50;95.60
21811;DHT22;11067;48.788;9.208;2024-02-26T08:52:30;8.50;95.30
21811;DHT22;11067;48.788;9.208;2024-02-26T08:54:55;8.60;94.60
21811;DHT22;11067;48.788;9.208;2024-02-26T08:57:22;8.80;90.80
21811;DHT22;11067;48.788;9.208;2024-02-26T08:59:47;8.90;85.90
21811;DHT22;11067;48.788;9.208;2024-02-26T09:02:13;9.00;76.70
21811;DHT22;11067;48.788;9.208;2024-02-26T09:04:38;8.90;65.70
21811;DHT22;11067;48.788;9.208;2024-02-26T09:07:04;8.80;69.70
21811;DHT22;11067;48.788;9.208;2024-02-26T09:09:30;8.90;74.70
21811;DHT22;11067;48.788;9.208;2024-02-26T09:11:55;8.80;71.30
21811;DHT22;11067;48.788;9.208;2024-02-26T09:14:21;8.80;75.40
21811;DHT22;11067;48.788;9.208;2024-02-26T09:16:47;8.90;76.40
21811;DHT22;11067;48.788;9.208;2024-02-26T09:19:14;8.90;71.50
21811;DHT22;11067;48.788;9.208;2024-02-26T09:21:43;9.00;62.10
21811;DHT22;11067;48.788;9.208;2024-02-26T09:24:10;9.10;63.60
21811;DHT22;11067;48.788;9.208;2024-02-26T09:26:35;9.30;60.10
21811;DHT22;11067;48.788;9.208;2024-02-26T09:29:01;9.20;57.60
21811;DHT22;11067;48.788;9.208;2024-02-26T09:31:27;9.20;58.00
21811;DHT22;11067;48.788;9.208;2024-02-26T09:33:53;9.10;61.10
21811;DHT22;11067;48.788;9.208;2024-02-26T09:36:18;9.30;74.40
21811;DHT22;11067;48.788;9.208;2024-02-26T09:38:44;9.50;67.50
21811;DHT22;11067;48.788;9.208;2024-02-26T09:41:14;9.70;59.20
21811;DHT22;11067;48.788;9.208;2024-02-26T09:43:44;9.80;63.40
21811;DHT22;11067;48.788;9.208;2024-02-26T09:46:10;9.80;58.10
21811;DHT22;11067;48.788;9.208;2024-02-26T09:48:37;9.70;56.10
21811;DHT22;11067;48.788;9.208;2024-02-26T09:51:03;9.80;56.50
21811;DHT22;11067;48.788;9.208;2024-02-26T09:53:30;9.80;58.60
21811;DHT22;11067;48.788;9.208;2024-02-26T09:55:58;10.00;59.90
21811;DHT22;11067;48.788;9.208;2024-02-26T09:58:27;10.30;56.90
21811;DHT22;11067;48.788;9.208;2024-02-26T10:00:56;10.30;48.60
21811;DHT22;11067;48.788;9.208;2024-02-26T10:03:27;10.40;46.60
21811;DHT22;11067;48.788;9.208;2024-02-26T10:05:53;10.10;53.20
21811;DHT22;11067;48.788;9.208;2024-02-26T10:08:21;10.30;57.60
21811;DHT22;11067;48.788;9.208;2024-02-26T10:10:48;10.60;58.40
21811;DHT22;11067;48.788;9.208;2024-02-26T10:13:14;10.80;46.10
21811;DHT22;11067;48.788;9.208;2024-02-26T10:15:39;10.60;43.80
21811;DHT22;11067;48.788;9.208;2024-02-26T10:18:06;11.00;41.40
21811;DHT22;11067;48.788;9.208;2024-02-26T10:20:31;11.10;34.20
21811;DHT22;11067;48.788;9.208;2024-02-26T10:22:57;11.40;31.60
21811;DHT22;11067;48.788;9.208;2024-02-26T10:25:23;11.40;30.20
21811;DHT22;11067;48.788;9.208;2024-02-26T10:27:49;11.60;25.50
21811;DHT22;11067;48.788;9.208;2024-02-26T10:32:45;11.10;27.30
21811;DHT22;11067;48.788;9.208;2024-02-26T10:35:12;11.10;29.10
21811;DHT22;11067;48.788;9.208;2024-02-26T10:37:37;11.20;31.70
21811;DHT22;11067;48.788;9.208;2024-02-26T10:40:03;11.30;30.70
21811;DHT22;11067;48.788;9.208;2024-02-26T10:42:30;11.40;27.10
21811;DHT22;11067;48.788;9.208;2024-02-26T10:44:58;10.90;30.80
21811;DHT22;11067;48.788;9.208;2024-02-26T10:47:24;11.40;28.60
21811;DHT22;11067;48.788;9.208;2024-02-26T10:49:50;11.50;22.10
21811;DHT22;11067;48.788;9.208;2024-02-26T10:52:18;11.50;22.10
21811;DHT22;11067;48.788;9.208;2024-02-26T10:54:47;11.50;24.50
21811;DHT22;11067;48.788;9.208;2024-02-26T10:57:13;11.30;21.70
21811;DHT22;11067;48.788;9.208;2024-02-26T10:59:39;11.40;12.60
21811;DHT22;11067;48.788;9.208;2024-02-26T11:02:08;11.50;14.10
21811;DHT22;11067;48.788;9.208;2024-02-26T11:04:36;11.50;14.50
21811;DHT22;11067;48.788;9.208;2024-02-26T11:07:02;11.80;12.40
21811;DHT22;11067;48.788;9.208;2024-02-26T11:09:30;11.80;10.10
21811;DHT22;11067;48.788;9.208;2024-02-26T11:11:57;11.80;11.20
21811;DHT22;11067;48.788;9.208;2024-02-26T11:14:25;11.90;10.60
21811;DHT22;11067;48.788;9.208;2024-02-26T11:16:51;11.60;10.10
21811;DHT22;11067;48.788;9.208;2024-02-26T11:19:18;12.00;10.40
21811;DHT22;11067;48.788;9.208;2024-02-26T11:21:44;12.40;11.10
21811;DHT22;11067;48.788;9.208;2024-02-26T11:24:12;12.20;9.50
21811;DHT22;11067;48.788;9.208;2024-02-26T11:26:53;12.30;10.90
21811;DHT22;11067;48.788;9.208;2024-02-26T11:29:32;12.00;8.70
21811;DHT22;11067;48.788;9.208;2024-02-26T11:32:00;11.90;11.70
21811;DHT22;11067;48.788;9.208;2024-02-26T11:34:26;12.00;14.00
21811;DHT22;11067;48.788;9.208;2024-02-26T11:36:52;11.70;15.40
21811;DHT22;11067;48.788;9.208;2024-02-26T11:39:18;11.70;18.60
21811;DHT22;11067;48.788;9.208;2024-02-26T11:41:45;11.90;16.00
21811;DHT22;11067;48.788;9.208;2024-02-26T11:44:10;12.00;14.20
21811;DHT22;11067;48.788;9.208;2024-02-26T11:46:40;12.10;13.50
21811;DHT22;11067;48.788;9.208;2024-02-26T11:51:56;12.30;12.00
21811;DHT22;11067;48.788;9.208;2024-02-26T11:54:53;12.30;11.30
21811;DHT22;11067;48.788;9.208;2024-02-26T11:57:38;12.50;8.20
21811;DHT22;11067;48.788;9.208;2024-02-26T12:02:50;12.60;9.90
21811;DHT22;11067;48.788;9.208;2024-02-26T12:05:23;12.80;7.40
21811;DHT22;11067;48.788;9.208;2024-02-26T12:08:02;12.70;7.40
21811;DHT22;11067;48.788;9.208;2024-02-26T12:10:33;12.90;7.50
21811;DHT22;11067;48.788;9.208;2024-02-26T12:13:14;13.00;5.50
21811;DHT22;11067;48.788;9.208;2024-02-26T12:15:41;13.10;3.70
21811;DHT22;11067;48.788;9.208;2024-02-26T12:18:07;13.20;4.20
21811;DHT22;11067;48.788;9.208;2024-02-26T12:20:35;13.10;4.20
21811;DHT22;11067;48.788;9.208;2024-02-26T12:23:02;13.10;4.30
21811;DHT22;11067;48.788;9.208;2024-02-26T12:25:31;13.00;4.10
21811;DHT22;11067;48.788;9.208;2024-02-26T12:27:57;13.00;3.90
21811;DHT22;11067;48.788;9.208;2024-02-26T12:30:23;12.90;4.70
21811;DHT22;11067;48.788;9.208;2024-02-26T12:32:50;12.90;5.30
21811;DHT22;11067;48.788;9.208;2024-02-26T12:35:16;12.90;3.80
21811;DHT22;11067;48.788;9.208;2024-02-26T12:37:43;13.00;4.00
21811;DHT22;11067;48.788;9.208;2024-02-26T12:40:10;12.90;4.00
21811;DHT22;11067;48.788;9.208;2024-02-26T12:42:36;13.00;3.70
21811;DHT22;11067;48.788;9.208;2024-02-26T12:45:07;13.20;4.10
21811;DHT22;11067;48.788;9.208;2024-02-26T12:47:38;13.10;3.40
21811;DHT22;11067;48.788;9.208;2024-02-26T12:50:05;13.50;3.70
21811;DHT22;11067;48.788;9.208;2024-02-26T12:52:35;13.70;1.00
21811;DHT22;11067;48.788;9.208;2024-02-26T12:55:04;13.50;1.00
21811;DHT22;11067;48.788;9.208;2024-02-26T12:57:31;13.70;1.00
21811;DHT22;11067;48.788;9.208;2024-02-26T12:59:59;13.80;1.00
21811;DHT22;11067;48.788;9.208;2024-02-26T13:02:26;14.00;1.00
21811;DHT22;11067;48.788;9.208;2024-02-26T13:04:52;13.60;1.00
21811;DHT22;11067;48.788;9.208;2024-02-26T13:07:18;13.70;1.00
21811;DHT22;11067;48.788;9.208;2024-02-26T13:09:45;13.50;1.00
21811;DHT22;11067;48.788;9.208;2024-02-26T13:12:12;13.70;1.00
21811;DHT22;11067;48.788;9.208;2024-02-26T13:14:38;14.00;1.00
21811;DHT22;11067;48.788;9.208;2024-02-26T13:17:04;13.80;1.00
21811;DHT22;11067;48.788;9.208;2024-02-26T13:19:29;14.00;1.00
21811;DHT22;11067;48.788;9.208;2024-02-26T13:21:55;13.90;1.00
21811;DHT22;11067;48.788;9.208;2024-02-26T13:24:21;14.00;1.00
21811;DHT22;11067;48.788;9.208;2024-02-26T13:26:54;14.00;1.00
21811;DHT22;11067;48.788;9.208;2024-02-26T13:29:19;14.10;1.00
21811;DHT22;11067;48.788;9.208;2024-02-26T13:31:45;14.30;1.00
21811;DHT22;11067;48.788;9.208;2024-02-26T13:34:24;14.50;1.00
21811;DHT22;11067;48.788;9.208;2024-02-26T13:36:51;14.50;1.00
21811;DHT22;11067;48.788;9.208;2024-02-26T13:39:27;14.20;1.00
21811;DHT22;11067;48.788;9.208;2024-02-26T13:41:53;14.00;1.00
21811;DHT22;11067;48.788;9.208;2024-02-26T13:44:23;14.10;1.00
21811;DHT22;11067;48.788;9.208;2024-02-26T13:46:49;14.50;1.00
21811;DHT22;11067;48.788;9.208;2024-02-26T13:49:15;14.20;1.00
21811;DHT22;11067;48.788;9.208;2024-02-26T13:51:41;14.10;1.00
21811;DHT22;11067;48.788;9.208;2024-02-26T13:54:07;14.20;1.00
21811;DHT22;11067;48.788;9.208;2024-02-26T13:56:33;14.30;1.00
21811;DHT22;11067;48.788;9.208;2024-02-26T13:58:58;14.00;1.00
21811;DHT22;11067;48.788;9.208;2024-02-26T14:01:25;14.20;1.00
21811;DHT22;11067;48.788;9.208;2024-02-26T14:03:50;14.20;1.00
21811;DHT22;11067;48.788;9.208;2024-02-26T14:06:16;14.10;1.00
21811;DHT22;11067;48.788;9.208;2024-02-26T14:08:42;14.00;1.00
21811;DHT22;11067;48.788;9.208;2024-02-26T14:11:08;14.00;1.00
21811;DHT22;11067;48.788;9.208;2024-02-26T14:13:33;14.20;1.00
21811;DHT22;11067;48.788;9.208;2024-02-26T14:15:59;14.10;1.00
21811;DHT22;11067;48.788;9.208;2024-02-26T14:18:24;14.00;1.00
21811;DHT22;11067;48.788;9.208;2024-02-26T14:20:50;14.10;1.00
21811;DHT22;11067;48.788;9.208;2024-02-26T14:23:16;14.20;1.00
21811;DHT22;11067;48.788;9.208;2024-02-26T14:25:42;14.30;1.00
21811;DHT22;11067;48.788;9.208;2024-02-26T14:28:07;14.20;1.00
21811;DHT22;11067;48.788;9.208;2024-02-26T14:30:33;14.10;1.00
21811;DHT22;11067;48.788;9.208;2024-02-26T14:32:58;14.00;1.00
21811;DHT22;11067;48.788;9.208;2024-02-26T14:35:24;13.90;1.00
21811;DHT22;11067;48.788;9.208;2024-02-26T14:37:51;13.90;1.00
21811;DHT22;11067;48.788;9.208;2024-02-26T14:40:17;14.00;1.00
21811;DHT22;11067;48.788;9.208;2024-02-26T14:42:43;14.20;1.00
21811;DHT22;11067;48.788;9.208;2024-02-26T14:45:09;14.20;1.00
21811;DHT22;11067;48.788;9.208;2024-02-26T14:47:35;14.30;1.00
21811;DHT22;11067;48.788;9.208;2024-02-26T14:50:01;14.20;1.00
21811;DHT22;11067;48.788;9.208;2024-02-26T14:52:27;14.30;1.00
21811;DHT22;11067;48.788;9.208;2024-02-26T14:54:52;14.20;1.00
21811;DHT22;11067;48.788;9.208;2024-02-26T14:57:18;14.20;1.00
21811;DHT22;11067;48.788;9.208;2024-02-26T14:59:44;14.10;1.00
21811;DHT22;11067;48.788;9.208;2024-02-26T15:02:10;14.10;1.00
21811;DHT22;11067;48.788;9.208;2024-02-26T15:04:36;14.10;1.00
21811;DHT22;11067;48.788;9.208;2024-02-26T15:07:03;14.00;1.00
21811;DHT22;11067;48.788;9.208;2024-02-26T15:09:28;13.90;1.00
21811;DHT22;11067;48.788;9.208;2024-02-26T15:11:54;13.90;1.00
21811;DHT22;11067;48.788;9.208;2024-02-26T15:14:19;13.90;1.00
21811;DHT22;11067;48.788;9.208;2024-02-26T15:16:45;13.90;1.00
21811;DHT22;11067;48.788;9.208;2024-02-26T15:19:10;13.90;1.00
21811;DHT22;11067;48.788;9.208;2024-02-26T15:21:46;13.90;1.00
21811;DHT22;11067;48.788;9.208;2024-02-26T15:24:12;13.90;1.00
21811;DHT22;11067;48.788;9.208;2024-02-26T15:26:38;13.90;1.00
21811;DHT22;11067;48.788;9.208;2024-02-26T15:29:06;13.80;1.00
21811;DHT22;11067;48.788;9.208;2024-02-26T15:31:33;13.80;1.00
21811;DHT22;11067;48.788;9.208;2024-02-26T15:33:58;13.90;1.00
21811;DHT22;11067;48.788;9.208;2024-02-26T15:36:24;13.80;1.00
21811;DHT22;11067;48.788;9.208;2024-02-26T15:38:50;13.80;1.00
21811;DHT22;11067;48.788;9.208;2024-02-26T15:41:16;13.60;1.00
21811;DHT22;11067;48.788;9.208;2024-02-26T15:43:42;13.60;1.00
21811;DHT22;11067;48.788;9.208;2024-02-26T15:46:08;13.50;1.00
21811;DHT22;11067;48.788;9.208;2024-02-26T15:48:33;13.50;1.00